Aviation Digital Data Service (ADDS)

Output produced by METARs form (1104 UTC 19 June 2019)
found at http://www.aviationweather.gov/metar/data/
 
TAF KBAB 191102Z 1911/2017 VRB06KT 9999 SKC QNH2977INS 
     BECMG 2002/2003 18009KT 9999 SKC QNH2971INS TX39/1922Z TN17/2011Z
       
TAF KBAD 191000Z 1910/2016 23005KT 9999 BKN250 QNH2977INS 
     BECMG 1913/1914 25012KT 9999 VCSH BKN040 QNH2971INS 
     TEMPO 1914/1917 VCTS OVC030CB 
     BECMG 1919/1920 22015G20KT 9999 NSW SCT050 BKN250 QNH2965INS 
     BECMG 2005/2006 20010KT 8000 -SHRA BKN030 QNH2962INS 
     TEMPO 2006/2008 25020G30KT 6000 TSRA OVC025CB TX32/1921Z TN22/1911Z
       
KBAF 190733Z 1908/2006 00000KT P6SM BKN010 
     FM191500 17005KT P6SM BKN015 
     FM192300 17006KT P6SM VCSH OVC030 
     FM200000 16005KT P6SM VCSH BKN035 
     FM200100 16005KT P6SM VCSH BKN020 
     FM200200 16005KT 6SM BR VCSH BKN010
       
KBAM 190520Z 1906/2006 28005KT P6SM SKC 
     FM191900 30010G20KT P6SM SKC
       
KBBD 191031Z 1911/2006 21010KT P6SM BKN025 BKN250 
     FM191500 20013G21KT P6SM FEW250
       
KBBG 190520Z 1906/2006 22006KT 6SM TSRA BR SCT040CB OVC100 
     TEMPO 1910/1914 4SM TSRA BR BKN030CB 
     FM191700 27007KT P6SM SCT030 OVC100 
     FM191900 27012G18KT P6SM SCT020 BKN200 
     FM200000 27007KT P6SM OVC200
       
KBCB 190527Z 1906/2006 00000KT 3SM BR SCT002 BKN012 
     TEMPO 1906/1908 1 1/2SM BR OVC002 
     FM190800 00000KT 3/4SM BR OVC007 
     TEMPO 1908/1912 1/4SM FG OVC001 
     FM191300 24005KT 5SM BR SCT014 BKN035 
     FM191400 23005KT P6SM BKN045 
     FM191800 25007KT P6SM -SHRA VCTS SCT025CB BKN080 
     FM192100 23005KT P6SM VCTS SCT030CB BKN060 
     FM200000 VRB03KT P6SM BKN120
       
KBCE 190520Z 1906/2006 29007KT P6SM FEW120 SCT200 
     FM191700 29012G20KT P6SM SCT100 SCT200 
     FM200300 27009KT P6SM FEW100 SCT200
       
KBDL 190733Z 1908/2012 00000KT P6SM BKN010 
     FM191300 00000KT P6SM OVC020 
     FM191700 18008KT P6SM BKN050 
     FM192300 16007KT P6SM VCSH BKN030 
     FM200200 16005KT 6SM BR VCSH OVC010 
     FM200700 13003KT 6SM BR VCSH OVC008
       
KBDR 190845Z 1909/2006 VRB03KT 4SM BR SCT006 OVC010 
     TEMPO 1909/1912 1SM BR BKN006 
     FM191300 13005KT 4SM BR OVC006 
     FM191500 13007KT P6SM VCSH BKN010 
     FM191900 14008KT 5SM -SHRA BKN020 
     FM200000 11005KT 3SM BR VCSH BKN006 OVC012
       
KBED 190733Z 1908/2006 00000KT 2SM BR OVC004 
     FM191400 16003KT 5SM BR OVC008 
     FM191900 13006KT P6SM BKN035 
     FM192300 14006KT P6SM VCSH BKN030 
     FM200100 14005KT 3SM BR VCSH BKN015
       
KBFD 190817Z 1908/2006 VRB03KT 1SM -SHRA BR BKN002 OVC018 
     FM190900 00000KT 1/2SM FG BKN002 
     FM191400 19005KT P6SM BKN015 
     FM191900 21006KT P6SM VCSH BKN040 
     FM200400 23005KT 3SM -SHRA BR BKN015
       
KBFF 190559Z 1906/2006 00000KT 1/4SM FG VV001 
     FM190800 13008KT 1SM BR BKN005 BKN250 
     FM191200 33008KT P6SM SCT005 BKN250 
     FM200100 15008KT P6SM SCT100 BKN250
       
KBFI 190538Z 1906/2006 VRB03KT P6SM BKN020 OVC025 
     FM191200 16006KT P6SM OVC025 
     FM191800 19009KT P6SM VCSH BKN030 OVC050 
     FM192300 22012KT P6SM BKN035 OVC045 
     FM200200 25014KT P6SM VCSH BKN030 OVC040
       
KBFL 190520Z 1906/2006 35006KT P6SM SKC
       
KBFM 190520Z 1906/2006 19003KT P6SM SCT250 
     FM191800 23008KT P6SM BKN250 
     FM200300 19007KT P6SM FEW250
       
KBGM 190859Z 1909/2006 VRB03KT P6SM BKN015 
     FM191200 VRB03KT P6SM OVC025
       
KBGR 190818Z 1908/2006 19005KT 1/2SM FG OVC002 
     FM191200 00000KT 2SM BR BKN016 
     FM191300 00000KT P6SM BKN025 
     FM191800 17008KT P6SM SCT050 
     FM200400 17005KT P6SM VCSH BKN013
       
KBHB 190948Z 1910/2006 20005KT 2SM BR OVC003 
     FM191400 16003KT P6SM BKN015 
     FM192200 18005KT P6SM SCT030 
     FM200400 15003KT P6SM BKN006
       
KBHM 190918Z 1909/2006 19005KT P6SM VCSH SCT015 OVC050 
     FM191100 22006KT P6SM BKN025 
     FM191600 25008KT P6SM BKN035 
     FM191700 25010KT P6SM VCTS BKN040CB 
     FM192300 23008KT P6SM SCT050
       
TAF AMD KBIF 190738Z 1907/2012 27015G25KT 9999 SKC 510013 QNH2994INS 
     TEMPO 1907/1909 27025G35KT 520009 
     BECMG 1908/1909 27012KT 9999 SKC QNH2999INS 
     BECMG 1916/1917 26012G18KT 9999 SKC QNH2988INS 
     BECMG 2003/2004 26009KT 9999 SKC QNH2993INS 
     BECMG 2006/2007 VRB06KT 9999 SKC QNH2994INS TX36/1922Z TN14/1912Z
       
KBIH 190520Z 1906/2006 33008KT P6SM FEW100 
     FM191700 VRB05KT P6SM FEW150 
     FM200100 27014G24KT P6SM BKN250
       
KBIL 190538Z 1906/2006 23010KT P6SM VCTS FEW050CB SCT080 BKN150 
     FM190700 24009KT P6SM FEW080 SCT120 BKN200 
     FM192100 32015G25KT P6SM VCTS SCT045CB BKN100
       
KBIS 190544Z 1906/2006 15006KT P6SM VCSH SCT030 BKN060 OVC100 
     TEMPO 1906/1907 -SHRA 
     FM191300 14010G18KT 6SM SHRA VCTS SCT016CB OVC040 
     FM192300 13010G19KT P6SM VCTS SCT035CB BKN120
       
TAF KBIX 191000Z 1910/2016 25009KT 8000 BR FEW010 SCT015 BKN025 QNH2988INS 
     BECMG 1913/1914 24010G15KT 9999 NSW FEW030 SCT045 QNH2990INS TX32/1919Z
TN24/1911Z
       
KBJC 191028Z 1910/2006 03006KT P6SM SCT100 BKN220 
     FM191400 VRB05KT P6SM FEW100 SCT220 
     FM191800 30010KT P6SM FEW110 SCT220 
     FM200100 27007KT P6SM FEW110 SCT220
       
KBJI 190520Z 1906/2006 VRB03KT P6SM SCT090 
     FM191700 11006KT P6SM SCT040 
     FM200200 VRB03KT P6SM BKN120
       
KBKE 190520Z 1906/2006 28010KT P6SM SKC 
     FM191600 33020G30KT P6SM SKC
       
TAF KBKF 190901Z 1909/2015 20009KT 9999 FEW100 QNH2997INS 
     BECMG 1912/1913 26009KT 9999 SCT060 BKN080 QNH2997INS 
     BECMG 1916/1917 31012G18KT 9999 VCTS BKN080CB QNH2998INS 
     TEMPO 1918/1924 30015G25KT -TSRA 
     BECMG 2001/2002 VRB06KT 9999 NSW SCT080 QNH2986INS 
     BECMG 2005/2006 21012KT 9999 FEW100 QNH2983INS 
     BECMG 2014/2015 VRB06KT 9999 SKC QNH2990INS TX25/1923Z TN11/1911Z
       
KBKW 190830Z 1909/2006 19004KT P6SM BKN080 
     FM191300 VRB03KT P6SM VCTS BKN025CB 
     FM191700 23005KT P6SM -SHRA VCTS BKN025CB 
     FM191900 24005KT P6SM BKN050
       
KBLF 190527Z 1906/2006 00000KT P6SM BKN150 
     FM190800 00000KT 5SM BR SCT007 BKN045 
     TEMPO 1908/1912 2SM BR BKN004 
     FM191400 26006KT P6SM BKN060 
     FM191600 24008KT 5SM SHRA VCTS SCT013CB BKN045 
     FM191800 25008KT P6SM VCTS SCT025CB BKN040 
     FM200000 24005KT P6SM SCT035
       
KBLH 190758Z 1908/2006 18010KT P6SM SKC 
     FM192000 18012G20KT P6SM SKC 
     FM200200 19010KT P6SM SKC
       
KBLI 190538Z 1906/2006 17012G18KT P6SM BKN050 
     FM190900 18014KT P6SM BKN050 
     FM191400 17012KT P6SM VCSH BKN035 OVC050 
     FM192100 18015KT P6SM -SHRA BKN035 OVC050
       
TAF KBLV 190800Z 1908/2014 VRB06KT 9999 SCT030 BKN060 QNH2955INS 
     TEMPO 1920/2001 25012G18KT 4800 -TSRA BKN025CB OVC050 
     BECMG 2004/2005 32009KT 8000 BR SCT007 OVC012 QNH2958INS 
     BECMG 2005/2006 34009KT 6000 BR OVC007 QNH2958INS 
     BECMG 2009/2010 35009KT 8000 BR BKN015 OVC030 QNH2962INS TX27/1920Z
TN21/1910Z
       
KBMG 190520Z 1906/2006 00000KT 5SM BR SCT120 
     FM190700 00000KT 5SM BR BKN090 
     FM191100 00000KT 2SM BR BKN010 
     FM191300 00000KT P6SM VCSH BKN022 
     FM191900 VRB04KT 6SM SHRA BR VCTS OVC070CB AMD LTD TO CLD VIS AND WIND TIL
191300
       
KBMI 190523Z 1906/2006 VRB04KT P6SM BKN080 
     FM191100 VRB03KT 6SM BR BKN060 
     FM191600 VRB04KT P6SM VCSH BKN035 
     FM191800 VRB03KT 6SM -SHRA BR VCTS OVC025CB 
     FM200100 VRB04KT 4SM -RA BR OVC015
       
KBNA 190913Z 1909/2006 22003KT P6SM SCT010 BKN080 
     TEMPO 1909/1913 5SM BR BKN010 
     FM191300 23008KT P6SM BKN050 
     FM192100 24008G15KT P6SM VCTS BKN050CB
       
KBNO 190520Z 1906/2006 26008KT P6SM SKC 
     FM191600 26015G25KT P6SM SKC
       
KBOI 190520Z 1906/2006 30008KT P6SM SKC 
     FM191700 31018G28KT P6SM SKC
       
KBOS 190733Z 1908/2012 00000KT 2SM BR OVC002 
     FM191200 12003KT 3SM BR OVC006 
     FM191400 10005KT 5SM BR BKN015 
     FM192000 12008KT P6SM BKN020 
     FM192300 13008KT 3SM BR VCSH BKN015
       
KBPI 190520Z 1906/2006 03012G18KT P6SM SCT040 BKN120 
     FM190800 VRB05KT P6SM SCT040 SCT120 
     FM191700 29015G25KT P6SM SCT200 
     FM192000 29028G40KT P6SM SCT200 
     FM200400 31015G22KT P6SM SCT250
       
KBPK 190914Z 1909/2006 VRB04KT P6SM VCTS SCT040CB BKN120 
     TEMPO 1912/1915 4SM -TSRA BKN040CB 
     FM191500 20008KT 6SM -TSRA BKN025 OVC040CB 
     TEMPO 1915/1918 2SM TSRA BR BKN015 OVC025CB 
     FM191800 22008G16KT P6SM VCTS SCT025 BKN040CB 
     FM200000 26006KT P6SM SCT100 BKN250
       
KBPT 190520Z 1906/2006 21004KT P6SM BKN250 
     FM191500 21012G18KT P6SM SCT025 
     FM200100 18009KT P6SM FEW050
       
KBRD 190950Z 1910/2006 00000KT 1/4SM FG OVC002 
     TEMPO 1910/1913 3SM BR 
     FM191300 10003KT P6SM SCT080 
     FM192000 10007G15KT P6SM SCT080
       
KBRL 190532Z 1906/2006 VRB03KT P6SM VCSH OVC045 
     FM191100 06005KT P6SM VCSH BKN025 
     FM191800 05006KT 4SM RA BR VCTS BKN030CB 
     FM200000 03005KT 5SM -RA BR OVC015
       
KBRO 190527Z 1906/2006 16005KT P6SM SCT250 
     FM191500 16017G25KT P6SM FEW050 
     FM200200 16012KT P6SM SCT250
       
KBTL 190540Z 1906/2006 00000KT P6SM SCT080 
     FM192100 33005KT P6SM VCSH SCT080 
     FM200100 05005KT P6SM OVC070 
     FM200500 08006KT 6SM -SHRA BR OVC025
       
KBTM 190521Z 1906/2006 32004KT P6SM SKC 
     FM191800 29018G25KT P6SM BKN100 
     FM192100 31020G30KT P6SM SCT100 
     FM200300 34010KT P6SM SCT100
       
KBTR 190540Z 1906/2006 00000KT P6SM FEW045 
     FM191600 22007KT P6SM BKN100 
     FM191900 22008KT P6SM BKN050 
     FM200000 19008KT P6SM SKC
       
KBTV 190529Z 1906/2006 VRB03KT P6SM SCT180 
     FM191600 19007KT P6SM VCSH BKN150 
     FM200200 00000KT P6SM SCT090
       
KBUF 190903Z 1909/2006 VRB03KT P6SM FEW200 
     FM191100 VRB03KT P6SM BKN120 
     FM191500 VRB04KT P6SM SCT035 
     FM192300 04006KT P6SM SCT035 
     FM200300 VRB03KT P6SM SCT060
       
KBUR 191057Z 1911/2006 17006KT P6SM OVC010 
     FM191600 VRB03KT P6SM OVC012 
     FM191900 17008KT P6SM SKC 
     FM200400 17006KT P6SM OVC012
       
KBVI 190520Z 1906/2006 VRB02KT P6SM BKN010 
     TEMPO 1909/1912 2SM BR BKN006 
     FM191600 VRB02KT P6SM VCSH BKN025 
     FM200000 VRB05KT P6SM BKN120 AMD NOT SKED
       
KBVO 190957Z 1910/2006 08005KT P6SM OVC026 
     FM191500 32005KT P6SM BKN030 
     FM191800 VRB04KT P6SM BKN050
       
KBWG 190945Z 1910/2006 VRB03KT P6SM SCT070 
     TEMPO 1910/1911 BKN015 
     FM191600 23012KT P6SM SCT050 BKN100 
     PROB30 1921/1924 2SM TSRA BR BKN035CB 
     FM200000 24010KT P6SM VCSH BKN035 
     PROB30 2005/2006 2SM TSRA BR BKN030CB
       
KBWI 191058Z 1911/2012 19004KT P6SM BKN010 BKN035 
     FM191500 20004KT P6SM SCT020 BKN070 
     FM191800 18005KT P6SM -SHRA VCTS SCT030CB OVC100 
     FM192300 17006KT P6SM -SHRA SCT025 OVC130 
     FM200300 18004KT P6SM SCT020 OVC130 
     FM200600 VRB03KT 5SM BR SCT015 BKN020
       
KBYI 190520Z 1906/2006 23006KT P6SM SKC 
     FM191400 27015G25KT P6SM SKC 
     FM191900 28020G35KT P6SM FEW160 
     FM200200 27015G25KT P6SM SKC 
     FM200400 25010KT P6SM SKC
       
KBZN 190539Z 1906/2012 VRB05KT P6SM SCT100 
     FM192000 28016G25KT P6SM SCT050 BKN060 
     TEMPO 1920/1923 4SM -SHRA BKN050 
     FM192300 29016G25KT P6SM FEW060 SCT090 
     TEMPO 1923/2001 VRB30G45KT 4SM -TSRA BKN060CB